sensor_id;sensor_type;location;lat;lon;timestamp;P1;durP1;ratioP1;P2;durP2;ratioP2
56171;SDS011;42052;41.634;-0.946;2022-11-06T00:00:56;4.05;;;3.67;;
56171;SDS011;42052;41.634;-0.946;2022-11-06T00:03:23;4.53;;;4.13;;
56171;SDS011;42052;41.634;-0.946;2022-11-06T00:05:49;4.10;;;3.70;;
56171;SDS011;42052;41.634;-0.946;2022-11-06T00:08:37;3.55;;;3.25;;
56171;SDS011;42052;41.634;-0.946;2022-11-06T00:11:12;4.13;;;3.72;;
56171;SDS011;42052;41.634;-0.946;2022-11-06T00:13:39;4.68;;;3.53;;
56171;SDS011;42052;41.634;-0.946;2022-11-06T00:16:07;3.45;;;3.15;;
56171;SDS011;42052;41.634;-0.946;2022-11-06T00:18:35;3.58;;;3.05;;
56171;SDS011;42052;41.634;-0.946;2022-11-06T00:21:06;4.07;;;3.33;;
56171;SDS011;42052;41.634;-0.946;2022-11-06T00:23:33;3.40;;;3.10;;
56171;SDS011;42052;41.634;-0.946;2022-11-06T00:25:59;3.50;;;3.10;;
56171;SDS011;42052;41.634;-0.946;2022-11-06T00:28:28;3.40;;;2.92;;
56171;SDS011;42052;41.634;-0.946;2022-11-06T00:31:01;5.10;;;3.00;;
56171;SDS011;42052;41.634;-0.946;2022-11-06T00:33:28;3.80;;;2.92;;
56171;SDS011;42052;41.634;-0.946;2022-11-06T00:35:54;4.63;;;2.75;;
56171;SDS011;42052;41.634;-0.946;2022-11-06T00:38:20;2.70;;;2.50;;
56171;SDS011;42052;41.634;-0.946;2022-11-06T00:40:46;3.60;;;3.00;;
56171;SDS011;42052;41.634;-0.946;2022-11-06T00:43:12;3.67;;;2.90;;
56171;SDS011;42052;41.634;-0.946;2022-11-06T00:45:38;2.50;;;2.30;;
56171;SDS011;42052;41.634;-0.946;2022-11-06T00:48:04;2.67;;;2.45;;
56171;SDS011;42052;41.634;-0.946;2022-11-06T00:50:31;2.88;;;2.58;;
56171;SDS011;42052;41.634;-0.946;2022-11-06T00:52:57;2.95;;;2.40;;
56171;SDS011;42052;41.634;-0.946;2022-11-06T00:55:23;2.78;;;2.53;;
56171;SDS011;42052;41.634;-0.946;2022-11-06T00:57:49;4.07;;;2.65;;
56171;SDS011;42052;41.634;-0.946;2022-11-06T01:00:15;2.65;;;2.45;;
56171;SDS011;42052;41.634;-0.946;2022-11-06T01:02:45;2.80;;;2.60;;
56171;SDS011;42052;41.634;-0.946;2022-11-06T01:05:11;3.33;;;2.33;;
56171;SDS011;42052;41.634;-0.946;2022-11-06T01:07:38;3.13;;;2.45;;
56171;SDS011;42052;41.634;-0.946;2022-11-06T01:10:05;3.58;;;2.50;;
56171;SDS011;42052;41.634;-0.946;2022-11-06T01:12:32;2.95;;;2.50;;
56171;SDS011;42052;41.634;-0.946;2022-11-06T01:14:59;3.05;;;2.30;;
56171;SDS011;42052;41.634;-0.946;2022-11-06T01:17:25;3.75;;;2.30;;
56171;SDS011;42052;41.634;-0.946;2022-11-06T01:19:52;2.78;;;2.47;;
56171;SDS011;42052;41.634;-0.946;2022-11-06T01:22:18;2.50;;;2.30;;
56171;SDS011;42052;41.634;-0.946;2022-11-06T01:24:44;2.35;;;2.13;;
56171;SDS011;42052;41.634;-0.946;2022-11-06T01:27:09;2.65;;;2.20;;
56171;SDS011;42052;41.634;-0.946;2022-11-06T01:29:35;2.42;;;2.20;;
56171;SDS011;42052;41.634;-0.946;2022-11-06T01:32:01;2.92;;;2.17;;
56171;SDS011;42052;41.634;-0.946;2022-11-06T01:34:28;2.42;;;2.00;;
56171;SDS011;42052;41.634;-0.946;2022-11-06T01:36:53;3.60;;;1.95;;
56171;SDS011;42052;41.634;-0.946;2022-11-06T01:39:19;2.72;;;2.15;;
56171;SDS011;42052;41.634;-0.946;2022-11-06T01:41:47;3.53;;;1.92;;
56171;SDS011;42052;41.634;-0.946;2022-11-06T01:47:25;3.20;;;2.25;;
56171;SDS011;42052;41.634;-0.946;2022-11-06T01:49:56;3.70;;;2.20;;
56171;SDS011;42052;41.634;-0.946;2022-11-06T01:52:27;2.70;;;1.92;;
56171;SDS011;42052;41.634;-0.946;2022-11-06T01:54:55;3.10;;;1.90;;
56171;SDS011;42052;41.634;-0.946;2022-11-06T01:57:25;2.53;;;1.77;;
56171;SDS011;42052;41.634;-0.946;2022-11-06T01:59:51;2.53;;;1.77;;
56171;SDS011;42052;41.634;-0.946;2022-11-06T02:02:19;2.17;;;1.80;;
56171;SDS011;42052;41.634;-0.946;2022-11-06T02:04:46;3.55;;;2.08;;
56171;SDS011;42052;41.634;-0.946;2022-11-06T02:07:13;2.13;;;1.90;;
56171;SDS011;42052;41.634;-0.946;2022-11-06T02:09:39;2.45;;;2.00;;
56171;SDS011;42052;41.634;-0.946;2022-11-06T02:18:07;3.05;;;1.90;;
56171;SDS011;42052;41.634;-0.946;2022-11-06T02:21:05;2.28;;;1.90;;
56171;SDS011;42052;41.634;-0.946;2022-11-06T02:29:21;2.88;;;1.83;;
56171;SDS011;42052;41.634;-0.946;2022-11-06T02:31:55;2.97;;;1.90;;
56171;SDS011;42052;41.634;-0.946;2022-11-06T02:34:24;2.45;;;1.60;;
56171;SDS011;42052;41.634;-0.946;2022-11-06T02:36:54;3.50;;;1.80;;
56171;SDS011;42052;41.634;-0.946;2022-11-06T02:39:26;1.83;;;1.42;;
56171;SDS011;42052;41.634;-0.946;2022-11-06T02:41:54;2.58;;;1.67;;
56171;SDS011;42052;41.634;-0.946;2022-11-06T02:44:24;1.75;;;1.58;;
56171;SDS011;42052;41.634;-0.946;2022-11-06T02:46:54;2.65;;;1.67;;
56171;SDS011;42052;41.634;-0.946;2022-11-06T02:52:07;2.53;;;1.50;;
56171;SDS011;42052;41.634;-0.946;2022-11-06T02:54:58;2.00;;;1.38;;
56171;SDS011;42052;41.634;-0.946;2022-11-06T02:57:52;2.25;;;1.60;;
56171;SDS011;42052;41.634;-0.946;2022-11-06T03:00:22;1.83;;;1.40;;
56171;SDS011;42052;41.634;-0.946;2022-11-06T03:02:56;2.38;;;1.60;;
56171;SDS011;42052;41.634;-0.946;2022-11-06T03:05:38;2.28;;;1.63;;
56171;SDS011;42052;41.634;-0.946;2022-11-06T03:08:16;3.17;;;1.52;;
56171;SDS011;42052;41.634;-0.946;2022-11-06T03:11:00;2.03;;;1.63;;
56171;SDS011;42052;41.634;-0.946;2022-11-06T03:19:28;2.38;;;1.50;;
56171;SDS011;42052;41.634;-0.946;2022-11-06T03:22:21;1.85;;;1.45;;
56171;SDS011;42052;41.634;-0.946;2022-11-06T03:24:58;2.22;;;1.40;;
56171;SDS011;42052;41.634;-0.946;2022-11-06T03:30:15;2.10;;;1.60;;
56171;SDS011;42052;41.634;-0.946;2022-11-06T03:32:52;1.90;;;1.40;;
56171;SDS011;42052;41.634;-0.946;2022-11-06T03:40:34;2.00;;;1.48;;
56171;SDS011;42052;41.634;-0.946;2022-11-06T03:43:06;2.33;;;1.30;;
56171;SDS011;42052;41.634;-0.946;2022-11-06T03:45:35;2.35;;;1.40;;
56171;SDS011;42052;41.634;-0.946;2022-11-06T03:48:10;1.83;;;1.40;;
56171;SDS011;42052;41.634;-0.946;2022-11-06T03:53:28;1.65;;;1.42;;
56171;SDS011;42052;41.634;-0.946;2022-11-06T03:56:17;1.63;;;1.30;;
56171;SDS011;42052;41.634;-0.946;2022-11-06T03:58:53;4.60;;;1.88;;
56171;SDS011;42052;41.634;-0.946;2022-11-06T04:01:24;2.00;;;1.45;;
56171;SDS011;42052;41.634;-0.946;2022-11-06T04:06:36;1.50;;;1.40;;
56171;SDS011;42052;41.634;-0.946;2022-11-06T04:09:08;1.50;;;1.40;;
56171;SDS011;42052;41.634;-0.946;2022-11-06T04:11:55;2.08;;;1.17;;
56171;SDS011;42052;41.634;-0.946;2022-11-06T04:14:44;1.40;;;1.20;;
56171;SDS011;42052;41.634;-0.946;2022-11-06T04:17:13;3.42;;;1.20;;
56171;SDS011;42052;41.634;-0.946;2022-11-06T04:19:46;2.15;;;1.40;;
56171;SDS011;42052;41.634;-0.946;2022-11-06T04:28:16;2.13;;;1.35;;
56171;SDS011;42052;41.634;-0.946;2022-11-06T04:31:42;1.50;;;1.17;;
56171;SDS011;42052;41.634;-0.946;2022-11-06T04:39:27;1.67;;;1.30;;
56171;SDS011;42052;41.634;-0.946;2022-11-06T04:42:31;1.88;;;1.20;;
56171;SDS011;42052;41.634;-0.946;2022-11-06T04:45:05;1.80;;;1.30;;
56171;SDS011;42052;41.634;-0.946;2022-11-06T04:47:36;1.77;;;1.25;;
56171;SDS011;42052;41.634;-0.946;2022-11-06T04:50:03;1.92;;;1.30;;
56171;SDS011;42052;41.634;-0.946;2022-11-06T04:52:31;1.65;;;1.23;;
56171;SDS011;42052;41.634;-0.946;2022-11-06T04:54:58;2.40;;;1.08;;
56171;SDS011;42052;41.634;-0.946;2022-11-06T04:57:25;1.95;;;1.15;;
56171;SDS011;42052;41.634;-0.946;2022-11-06T04:59:51;1.98;;;1.35;;
56171;SDS011;42052;41.634;-0.946;2022-11-06T05:02:17;1.00;;;0.90;;
56171;SDS011;42052;41.634;-0.946;2022-11-06T05:04:43;2.60;;;1.20;;
56171;SDS011;42052;41.634;-0.946;2022-11-06T05:07:13;2.33;;;1.10;;
56171;SDS011;42052;41.634;-0.946;2022-11-06T05:09:39;2.22;;;1.27;;
56171;SDS011;42052;41.634;-0.946;2022-11-06T05:12:06;1.83;;;0.93;;
56171;SDS011;42052;41.634;-0.946;2022-11-06T05:14:32;1.23;;;1.05;;
56171;SDS011;42052;41.634;-0.946;2022-11-06T05:16:58;1.33;;;1.05;;
56171;SDS011;42052;41.634;-0.946;2022-11-06T05:19:25;1.80;;;1.33;;
56171;SDS011;42052;41.634;-0.946;2022-11-06T05:21:51;1.98;;;1.20;;
56171;SDS011;42052;41.634;-0.946;2022-11-06T05:24:35;1.02;;;0.88;;
56171;SDS011;42052;41.634;-0.946;2022-11-06T05:27:01;2.50;;;1.10;;
56171;SDS011;42052;41.634;-0.946;2022-11-06T05:29:27;1.48;;;1.02;;
56171;SDS011;42052;41.634;-0.946;2022-11-06T05:31:53;1.20;;;1.00;;
56171;SDS011;42052;41.634;-0.946;2022-11-06T05:34:19;3.50;;;1.25;;
56171;SDS011;42052;41.634;-0.946;2022-11-06T05:36:45;3.35;;;1.20;;
56171;SDS011;42052;41.634;-0.946;2022-11-06T05:39:11;1.65;;;1.10;;
56171;SDS011;42052;41.634;-0.946;2022-11-06T05:41:37;1.40;;;1.00;;
56171;SDS011;42052;41.634;-0.946;2022-11-06T05:44:03;1.45;;;0.70;;
56171;SDS011;42052;41.634;-0.946;2022-11-06T05:46:29;1.90;;;1.02;;
56171;SDS011;42052;41.634;-0.946;2022-11-06T05:48:56;2.13;;;0.90;;
56171;SDS011;42052;41.634;-0.946;2022-11-06T05:51:22;1.77;;;1.20;;
56171;SDS011;42052;41.634;-0.946;2022-11-06T05:53:48;1.05;;;0.90;;
56171;SDS011;42052;41.634;-0.946;2022-11-06T05:56:14;1.45;;;1.13;;
56171;SDS011;42052;41.634;-0.946;2022-11-06T05:58:40;1.58;;;1.00;;
56171;SDS011;42052;41.634;-0.946;2022-11-06T06:01:06;1.85;;;0.98;;
56171;SDS011;42052;41.634;-0.946;2022-11-06T06:03:31;1.95;;;1.00;;
56171;SDS011;42052;41.634;-0.946;2022-11-06T06:05:57;1.88;;;0.90;;
56171;SDS011;42052;41.634;-0.946;2022-11-06T06:08:23;3.05;;;1.00;;
56171;SDS011;42052;41.634;-0.946;2022-11-06T06:10:51;1.30;;;1.00;;
56171;SDS011;42052;41.634;-0.946;2022-11-06T06:13:17;2.03;;;1.10;;
56171;SDS011;42052;41.634;-0.946;2022-11-06T06:15:43;1.55;;;0.93;;
56171;SDS011;42052;41.634;-0.946;2022-11-06T06:18:10;2.75;;;0.95;;
56171;SDS011;42052;41.634;-0.946;2022-11-06T06:20:36;1.95;;;0.93;;
56171;SDS011;42052;41.634;-0.946;2022-11-06T06:23:02;1.90;;;1.00;;
56171;SDS011;42052;41.634;-0.946;2022-11-06T06:25:29;2.30;;;0.98;;
56171;SDS011;42052;41.634;-0.946;2022-11-06T06:27:55;1.55;;;1.00;;
56171;SDS011;42052;41.634;-0.946;2022-11-06T06:30:22;1.25;;;0.80;;
56171;SDS011;42052;41.634;-0.946;2022-11-06T06:32:49;1.33;;;0.90;;
56171;SDS011;42052;41.634;-0.946;2022-11-06T06:35:16;1.55;;;0.95;;
56171;SDS011;42052;41.634;-0.946;2022-11-06T06:37:42;2.03;;;0.70;;
56171;SDS011;42052;41.634;-0.946;2022-11-06T06:40:16;1.77;;;1.10;;
56171;SDS011;42052;41.634;-0.946;2022-11-06T06:42:42;1.05;;;0.80;;
56171;SDS011;42052;41.634;-0.946;2022-11-06T06:45:08;1.45;;;1.00;;
56171;SDS011;42052;41.634;-0.946;2022-11-06T06:47:34;1.95;;;0.90;;
56171;SDS011;42052;41.634;-0.946;2022-11-06T06:50:00;2.35;;;1.10;;
56171;SDS011;42052;41.634;-0.946;2022-11-06T06:52:25;1.58;;;0.95;;
56171;SDS011;42052;41.634;-0.946;2022-11-06T06:54:51;2.17;;;1.05;;
56171;SDS011;42052;41.634;-0.946;2022-11-06T06:57:17;1.02;;;0.85;;
56171;SDS011;42052;41.634;-0.946;2022-11-06T06:59:43;1.52;;;0.80;;
56171;SDS011;42052;41.634;-0.946;2022-11-06T07:02:09;1.05;;;0.77;;
56171;SDS011;42052;41.634;-0.946;2022-11-06T07:04:35;0.95;;;0.65;;
56171;SDS011;42052;41.634;-0.946;2022-11-06T07:07:00;1.15;;;0.88;;
56171;SDS011;42052;41.634;-0.946;2022-11-06T07:09:28;1.10;;;0.80;;
56171;SDS011;42052;41.634;-0.946;2022-11-06T07:11:55;1.40;;;0.93;;
56171;SDS011;42052;41.634;-0.946;2022-11-06T07:14:22;1.40;;;1.00;;
56171;SDS011;42052;41.634;-0.946;2022-11-06T07:16:48;1.38;;;0.90;;
56171;SDS011;42052;41.634;-0.946;2022-11-06T07:19:14;0.93;;;0.70;;
56171;SDS011;42052;41.634;-0.946;2022-11-06T07:21:40;2.38;;;1.20;;
56171;SDS011;42052;41.634;-0.946;2022-11-06T07:24:06;1.42;;;0.85;;
56171;SDS011;42052;41.634;-0.946;2022-11-06T07:26:32;2.10;;;0.80;;
56171;SDS011;42052;41.634;-0.946;2022-11-06T07:28:58;1.90;;;1.00;;
56171;SDS011;42052;41.634;-0.946;2022-11-06T07:31:24;1.10;;;0.80;;
56171;SDS011;42052;41.634;-0.946;2022-11-06T07:33:50;2.38;;;0.80;;
56171;SDS011;42052;41.634;-0.946;2022-11-06T07:36:15;4.03;;;1.00;;
56171;SDS011;42052;41.634;-0.946;2022-11-06T07:38:41;1.52;;;0.90;;
56171;SDS011;42052;41.634;-0.946;2022-11-06T07:41:09;1.40;;;0.80;;
56171;SDS011;42052;41.634;-0.946;2022-11-06T07:43:37;1.52;;;0.90;;
56171;SDS011;42052;41.634;-0.946;2022-11-06T07:46:04;1.23;;;0.80;;
56171;SDS011;42052;41.634;-0.946;2022-11-06T07:48:31;1.08;;;0.70;;
56171;SDS011;42052;41.634;-0.946;2022-11-06T07:51:00;1.95;;;0.90;;
56171;SDS011;42052;41.634;-0.946;2022-11-06T07:53:27;2.40;;;0.88;;
56171;SDS011;42052;41.634;-0.946;2022-11-06T07:55:53;3.88;;;1.20;;
56171;SDS011;42052;41.634;-0.946;2022-11-06T07:58:20;4.10;;;1.08;;
56171;SDS011;42052;41.634;-0.946;2022-11-06T08:00:50;1.65;;;0.90;;
56171;SDS011;42052;41.634;-0.946;2022-11-06T08:03:18;1.40;;;0.98;;
56171;SDS011;42052;41.634;-0.946;2022-11-06T08:05:44;2.85;;;0.82;;
56171;SDS011;42052;41.634;-0.946;2022-11-06T08:08:11;1.77;;;0.85;;
56171;SDS011;42052;41.634;-0.946;2022-11-06T08:10:37;2.75;;;1.05;;
56171;SDS011;42052;41.634;-0.946;2022-11-06T08:13:07;3.20;;;1.25;;
56171;SDS011;42052;41.634;-0.946;2022-11-06T08:15:35;2.15;;;1.05;;
56171;SDS011;42052;41.634;-0.946;2022-11-06T08:18:02;3.33;;;1.00;;
56171;SDS011;42052;41.634;-0.946;2022-11-06T08:20:29;2.95;;;1.23;;
56171;SDS011;42052;41.634;-0.946;2022-11-06T08:22:58;2.15;;;1.00;;
56171;SDS011;42052;41.634;-0.946;2022-11-06T08:25:25;2.05;;;0.90;;
56171;SDS011;42052;41.634;-0.946;2022-11-06T08:27:55;2.35;;;1.00;;
56171;SDS011;42052;41.634;-0.946;2022-11-06T08:30:22;1.58;;;1.10;;
56171;SDS011;42052;41.634;-0.946;2022-11-06T08:32:48;1.75;;;0.98;;
56171;SDS011;42052;41.634;-0.946;2022-11-06T08:35:14;1.88;;;0.82;;
56171;SDS011;42052;41.634;-0.946;2022-11-06T08:37:40;2.40;;;1.00;;
56171;SDS011;42052;41.634;-0.946;2022-11-06T08:40:07;1.65;;;1.00;;
56171;SDS011;42052;41.634;-0.946;2022-11-06T08:42:33;2.42;;;0.93;;
56171;SDS011;42052;41.634;-0.946;2022-11-06T08:44:59;2.38;;;0.88;;
56171;SDS011;42052;41.634;-0.946;2022-11-06T08:47:25;5.07;;;1.30;;
56171;SDS011;42052;41.634;-0.946;2022-11-06T08:49:51;3.40;;;0.90;;
56171;SDS011;42052;41.634;-0.946;2022-11-06T08:52:17;1.63;;;0.95;;
56171;SDS011;42052;41.634;-0.946;2022-11-06T08:54:42;1.10;;;0.80;;
56171;SDS011;42052;41.634;-0.946;2022-11-06T08:57:08;3.90;;;1.00;;
56171;SDS011;42052;41.634;-0.946;2022-11-06T08:59:34;10.98;;;1.20;;
56171;SDS011;42052;41.634;-0.946;2022-11-06T09:02:00;4.93;;;1.38;;
56171;SDS011;42052;41.634;-0.946;2022-11-06T09:04:26;5.78;;;0.95;;
56171;SDS011;42052;41.634;-0.946;2022-11-06T09:06:52;4.93;;;1.23;;
56171;SDS011;42052;41.634;-0.946;2022-11-06T09:09:20;7.00;;;1.20;;
56171;SDS011;42052;41.634;-0.946;2022-11-06T09:11:46;3.03;;;1.20;;
56171;SDS011;42052;41.634;-0.946;2022-11-06T09:14:11;3.53;;;1.20;;
56171;SDS011;42052;41.634;-0.946;2022-11-06T09:16:37;3.30;;;1.20;;
56171;SDS011;42052;41.634;-0.946;2022-11-06T09:19:03;2.78;;;1.23;;
56171;SDS011;42052;41.634;-0.946;2022-11-06T09:21:29;3.92;;;1.05;;
56171;SDS011;42052;41.634;-0.946;2022-11-06T09:23:55;3.38;;;1.05;;
56171;SDS011;42052;41.634;-0.946;2022-11-06T09:26:20;4.57;;;1.35;;
56171;SDS011;42052;41.634;-0.946;2022-11-06T09:28:46;5.15;;;1.30;;
56171;SDS011;42052;41.634;-0.946;2022-11-06T09:31:12;3.67;;;1.30;;
56171;SDS011;42052;41.634;-0.946;2022-11-06T09:33:38;2.72;;;1.20;;
56171;SDS011;42052;41.634;-0.946;2022-11-06T09:36:04;2.95;;;1.33;;
56171;SDS011;42052;41.634;-0.946;2022-11-06T09:38:31;3.47;;;1.27;;
56171;SDS011;42052;41.634;-0.946;2022-11-06T09:40:58;3.92;;;1.15;;
56171;SDS011;42052;41.634;-0.946;2022-11-06T09:46:23;2.70;;;1.13;;
56171;SDS011;42052;41.634;-0.946;2022-11-06T09:48:52;5.35;;;1.40;;
56171;SDS011;42052;41.634;-0.946;2022-11-06T09:53:55;3.03;;;1.30;;
56171;SDS011;42052;41.634;-0.946;2022-11-06T09:56:32;4.20;;;1.20;;
56171;SDS011;42052;41.634;-0.946;2022-11-06T09:59:02;3.20;;;1.20;;
56171;SDS011;42052;41.634;-0.946;2022-11-06T10:01:47;3.33;;;1.20;;
56171;SDS011;42052;41.634;-0.946;2022-11-06T10:07:00;2.50;;;1.20;;
56171;SDS011;42052;41.634;-0.946;2022-11-06T10:09:26;6.38;;;1.25;;
56171;SDS011;42052;41.634;-0.946;2022-11-06T10:12:05;3.03;;;1.40;;
56171;SDS011;42052;41.634;-0.946;2022-11-06T10:20:14;2.60;;;1.20;;
56171;SDS011;42052;41.634;-0.946;2022-11-06T10:25:48;3.45;;;1.60;;
56171;SDS011;42052;41.634;-0.946;2022-11-06T10:28:33;4.72;;;1.70;;
56171;SDS011;42052;41.634;-0.946;2022-11-06T10:34:03;4.30;;;1.73;;
56171;SDS011;42052;41.634;-0.946;2022-11-06T10:36:53;4.93;;;1.70;;
56171;SDS011;42052;41.634;-0.946;2022-11-06T10:39:33;3.42;;;1.63;;
56171;SDS011;42052;41.634;-0.946;2022-11-06T10:42:05;2.92;;;1.55;;
56171;SDS011;42052;41.634;-0.946;2022-11-06T10:44:45;4.47;;;1.77;;
56171;SDS011;42052;41.634;-0.946;2022-11-06T10:47:21;3.03;;;1.67;;
56171;SDS011;42052;41.634;-0.946;2022-11-06T10:49:52;3.58;;;1.50;;
56171;SDS011;42052;41.634;-0.946;2022-11-06T10:57:56;4.30;;;1.70;;
56171;SDS011;42052;41.634;-0.946;2022-11-06T11:00:30;3.80;;;1.65;;
56171;SDS011;42052;41.634;-0.946;2022-11-06T11:03:01;4.00;;;1.40;;
56171;SDS011;42052;41.634;-0.946;2022-11-06T11:08:02;3.38;;;1.50;;
56171;SDS011;42052;41.634;-0.946;2022-11-06T11:10:31;3.05;;;1.70;;
56171;SDS011;42052;41.634;-0.946;2022-11-06T11:12:59;4.75;;;1.77;;
56171;SDS011;42052;41.634;-0.946;2022-11-06T11:15:31;3.10;;;1.63;;
56171;SDS011;42052;41.634;-0.946;2022-11-06T11:18:13;3.13;;;1.48;;
56171;SDS011;42052;41.634;-0.946;2022-11-06T11:20:42;5.90;;;1.92;;
56171;SDS011;42052;41.634;-0.946;2022-11-06T11:23:19;3.83;;;1.60;;
56171;SDS011;42052;41.634;-0.946;2022-11-06T11:28:35;2.55;;;1.50;;
56171;SDS011;42052;41.634;-0.946;2022-11-06T11:31:03;4.78;;;1.83;;
56171;SDS011;42052;41.634;-0.946;2022-11-06T11:33:33;3.67;;;1.40;;
56171;SDS011;42052;41.634;-0.946;2022-11-06T11:35:59;3.75;;;1.65;;
56171;SDS011;42052;41.634;-0.946;2022-11-06T11:38:26;4.07;;;1.73;;
56171;SDS011;42052;41.634;-0.946;2022-11-06T11:41:04;5.05;;;1.80;;
56171;SDS011;42052;41.634;-0.946;2022-11-06T11:43:38;3.88;;;1.80;;
56171;SDS011;42052;41.634;-0.946;2022-11-06T11:48:40;3.50;;;1.90;;
56171;SDS011;42052;41.634;-0.946;2022-11-06T11:56:44;3.42;;;1.85;;
56171;SDS011;42052;41.634;-0.946;2022-11-06T11:59:31;3.47;;;1.55;;
56171;SDS011;42052;41.634;-0.946;2022-11-06T12:05:20;7.03;;;2.10;;
56171;SDS011;42052;41.634;-0.946;2022-11-06T12:07:53;3.20;;;1.80;;
56171;SDS011;42052;41.634;-0.946;2022-11-06T12:10:29;3.75;;;1.70;;
56171;SDS011;42052;41.634;-0.946;2022-11-06T12:13:00;3.97;;;1.50;;
56171;SDS011;42052;41.634;-0.946;2022-11-06T12:29:21;2.77;;;1.50;;
56171;SDS011;42052;41.634;-0.946;2022-11-06T12:31:52;9.10;;;1.73;;
56171;SDS011;42052;41.634;-0.946;2022-11-06T12:34:32;3.00;;;1.52;;
56171;SDS011;42052;41.634;-0.946;2022-11-06T12:39:36;4.22;;;1.63;;
56171;SDS011;42052;41.634;-0.946;2022-11-06T12:42:08;2.92;;;1.50;;
56171;SDS011;42052;41.634;-0.946;2022-11-06T12:44:36;5.10;;;1.77;;
56171;SDS011;42052;41.634;-0.946;2022-11-06T12:47:12;3.33;;;1.38;;
56171;SDS011;42052;41.634;-0.946;2022-11-06T12:49:50;7.97;;;1.92;;
56171;SDS011;42052;41.634;-0.946;2022-11-06T12:52:31;4.35;;;1.50;;
56171;SDS011;42052;41.634;-0.946;2022-11-06T12:57:56;3.60;;;1.60;;
56171;SDS011;42052;41.634;-0.946;2022-11-06T13:06:24;5.22;;;1.67;;
56171;SDS011;42052;41.634;-0.946;2022-11-06T13:09:15;4.82;;;1.60;;
56171;SDS011;42052;41.634;-0.946;2022-11-06T13:17:31;5.57;;;1.80;;
56171;SDS011;42052;41.634;-0.946;2022-11-06T13:23:15;3.25;;;1.60;;
56171;SDS011;42052;41.634;-0.946;2022-11-06T13:25:52;4.53;;;1.80;;
56171;SDS011;42052;41.634;-0.946;2022-11-06T13:31:09;3.47;;;1.85;;
56171;SDS011;42052;41.634;-0.946;2022-11-06T13:33:41;2.53;;;1.40;;
56171;SDS011;42052;41.634;-0.946;2022-11-06T13:36:18;2.88;;;1.45;;
56171;SDS011;42052;41.634;-0.946;2022-11-06T13:38:49;5.82;;;1.55;;
56171;SDS011;42052;41.634;-0.946;2022-11-06T13:41:36;3.13;;;1.60;;
56171;SDS011;42052;41.634;-0.946;2022-11-06T13:44:04;3.40;;;1.60;;
56171;SDS011;42052;41.634;-0.946;2022-11-06T14:00:36;3.67;;;2.30;;
56171;SDS011;42052;41.634;-0.946;2022-11-06T14:08:30;4.15;;;2.42;;
56171;SDS011;42052;41.634;-0.946;2022-11-06T14:11:11;3.13;;;2.20;;
56171;SDS011;42052;41.634;-0.946;2022-11-06T14:16:25;2.95;;;2.05;;
56171;SDS011;42052;41.634;-0.946;2022-11-06T14:19:05;3.63;;;2.20;;
56171;SDS011;42052;41.634;-0.946;2022-11-06T14:24:21;3.72;;;2.00;;
56171;SDS011;42052;41.634;-0.946;2022-11-06T14:26:54;4.03;;;2.00;;
56171;SDS011;42052;41.634;-0.946;2022-11-06T14:34:48;3.75;;;1.80;;
56171;SDS011;42052;41.634;-0.946;2022-11-06T14:42:40;4.32;;;1.70;;
56171;SDS011;42052;41.634;-0.946;2022-11-06T14:45:16;5.43;;;2.17;;
56171;SDS011;42052;41.634;-0.946;2022-11-06T14:52:54;3.10;;;1.70;;
56171;SDS011;42052;41.634;-0.946;2022-11-06T14:55:33;3.88;;;1.70;;
56171;SDS011;42052;41.634;-0.946;2022-11-06T14:58:13;3.20;;;1.90;;
56171;SDS011;42052;41.634;-0.946;2022-11-06T15:03:34;3.50;;;1.60;;
56171;SDS011;42052;41.634;-0.946;2022-11-06T15:16:47;3.40;;;1.63;;
56171;SDS011;42052;41.634;-0.946;2022-11-06T15:21:49;2.70;;;1.70;;
56171;SDS011;42052;41.634;-0.946;2022-11-06T15:24:37;2.83;;;1.48;;
56171;SDS011;42052;41.634;-0.946;2022-11-06T15:27:07;2.77;;;1.60;;
56171;SDS011;42052;41.634;-0.946;2022-11-06T15:29:39;3.30;;;1.25;;
56171;SDS011;42052;41.634;-0.946;2022-11-06T15:32:14;1.67;;;0.90;;
56171;SDS011;42052;41.634;-0.946;2022-11-06T15:34:44;1.45;;;0.70;;
56171;SDS011;42052;41.634;-0.946;2022-11-06T15:37:19;0.85;;;0.80;;
56171;SDS011;42052;41.634;-0.946;2022-11-06T15:39:50;2.38;;;1.38;;
56171;SDS011;42052;41.634;-0.946;2022-11-06T15:42:17;1.65;;;1.10;;
56171;SDS011;42052;41.634;-0.946;2022-11-06T15:44:47;3.45;;;1.20;;
56171;SDS011;42052;41.634;-0.946;2022-11-06T15:47:24;2.22;;;1.30;;
56171;SDS011;42052;41.634;-0.946;2022-11-06T15:52:37;2.40;;;1.10;;
56171;SDS011;42052;41.634;-0.946;2022-11-06T15:55:04;2.05;;;1.10;;
56171;SDS011;42052;41.634;-0.946;2022-11-06T15:57:30;2.35;;;1.13;;
56171;SDS011;42052;41.634;-0.946;2022-11-06T16:05:22;1.88;;;1.20;;
56171;SDS011;42052;41.634;-0.946;2022-11-06T16:07:49;4.10;;;1.40;;
56171;SDS011;42052;41.634;-0.946;2022-11-06T16:10:16;2.60;;;1.20;;
56171;SDS011;42052;41.634;-0.946;2022-11-06T16:12:44;1.45;;;1.10;;
56171;SDS011;42052;41.634;-0.946;2022-11-06T16:18:21;1.40;;;1.00;;
56171;SDS011;42052;41.634;-0.946;2022-11-06T16:23:35;2.22;;;1.20;;
56171;SDS011;42052;41.634;-0.946;2022-11-06T16:26:14;1.33;;;1.02;;
56171;SDS011;42052;41.634;-0.946;2022-11-06T16:28:44;1.30;;;0.88;;
56171;SDS011;42052;41.634;-0.946;2022-11-06T16:31:16;1.98;;;1.10;;
56171;SDS011;42052;41.634;-0.946;2022-11-06T16:36:22;2.58;;;1.13;;
56171;SDS011;42052;41.634;-0.946;2022-11-06T16:38:49;1.55;;;1.10;;
56171;SDS011;42052;41.634;-0.946;2022-11-06T16:41:17;1.65;;;1.20;;
56171;SDS011;42052;41.634;-0.946;2022-11-06T16:49:45;1.70;;;0.95;;
56171;SDS011;42052;41.634;-0.946;2022-11-06T16:52:28;1.90;;;1.13;;
56171;SDS011;42052;41.634;-0.946;2022-11-06T16:57:44;1.80;;;1.17;;
56171;SDS011;42052;41.634;-0.946;2022-11-06T17:02:48;2.25;;;1.10;;
56171;SDS011;42052;41.634;-0.946;2022-11-06T17:05:20;1.70;;;1.35;;
56171;SDS011;42052;41.634;-0.946;2022-11-06T17:07:48;2.72;;;1.10;;
56171;SDS011;42052;41.634;-0.946;2022-11-06T17:10:38;1.60;;;1.02;;
56171;SDS011;42052;41.634;-0.946;2022-11-06T17:15:59;2.92;;;1.02;;
56171;SDS011;42052;41.634;-0.946;2022-11-06T17:18:27;2.63;;;1.13;;
56171;SDS011;42052;41.634;-0.946;2022-11-06T17:20:56;2.33;;;1.33;;
56171;SDS011;42052;41.634;-0.946;2022-11-06T17:23:24;2.15;;;1.10;;
56171;SDS011;42052;41.634;-0.946;2022-11-06T17:25:52;1.80;;;1.20;;
56171;SDS011;42052;41.634;-0.946;2022-11-06T17:28:21;2.70;;;1.27;;
56171;SDS011;42052;41.634;-0.946;2022-11-06T17:30:47;1.92;;;1.30;;
56171;SDS011;42052;41.634;-0.946;2022-11-06T17:33:13;1.40;;;1.10;;
56171;SDS011;42052;41.634;-0.946;2022-11-06T17:35:39;1.23;;;1.00;;
56171;SDS011;42052;41.634;-0.946;2022-11-06T17:38:06;1.80;;;1.10;;
56171;SDS011;42052;41.634;-0.946;2022-11-06T17:40:35;1.83;;;1.00;;
56171;SDS011;42052;41.634;-0.946;2022-11-06T17:43:01;1.75;;;1.13;;
56171;SDS011;42052;41.634;-0.946;2022-11-06T17:45:27;3.63;;;1.23;;
56171;SDS011;42052;41.634;-0.946;2022-11-06T17:47:53;1.13;;;1.00;;
56171;SDS011;42052;41.634;-0.946;2022-11-06T17:50:19;1.55;;;1.08;;
56171;SDS011;42052;41.634;-0.946;2022-11-06T17:52:45;1.92;;;1.20;;
56171;SDS011;42052;41.634;-0.946;2022-11-06T17:55:11;1.45;;;0.95;;
56171;SDS011;42052;41.634;-0.946;2022-11-06T17:57:37;1.90;;;1.00;;
56171;SDS011;42052;41.634;-0.946;2022-11-06T18:00:03;2.80;;;1.13;;
56171;SDS011;42052;41.634;-0.946;2022-11-06T18:02:30;1.70;;;1.10;;
56171;SDS011;42052;41.634;-0.946;2022-11-06T18:04:56;1.52;;;1.05;;
56171;SDS011;42052;41.634;-0.946;2022-11-06T18:07:23;2.63;;;1.15;;
56171;SDS011;42052;41.634;-0.946;2022-11-06T18:09:49;1.92;;;1.13;;
56171;SDS011;42052;41.634;-0.946;2022-11-06T18:12:14;1.40;;;0.88;;
56171;SDS011;42052;41.634;-0.946;2022-11-06T18:14:45;1.20;;;1.00;;
56171;SDS011;42052;41.634;-0.946;2022-11-06T18:17:11;2.83;;;1.00;;
56171;SDS011;42052;41.634;-0.946;2022-11-06T18:19:37;2.75;;;1.23;;
56171;SDS011;42052;41.634;-0.946;2022-11-06T18:22:03;1.55;;;0.90;;
56171;SDS011;42052;41.634;-0.946;2022-11-06T18:24:29;3.28;;;1.10;;